Time;durP1;ratioP1;P1;durP2;ratioP2;P2;SDS_P1;SDS_P2;PMS_P1;PMS_P2;Temp;Humidity;BMP_temperature;BMP_pressure;BME280_temperature;BME280_humidity;BME280_pressure;Samples;Min_cycle;Max_cycle;Signal;HPM_P1;HPM_P2
2022/04/03 00:03:47;;;;;;;27.77;15.75;;;;;;;-0.10;98.01;98281.23;4314235;81;21016;-84
2022/04/03 00:09:49;;;;;;;27.05;15.93;;;;;;;-0.10;98.01;98281.23;4312100;81;21032;-84
2022/04/03 00:15:50;;;;;;;28.92;17.15;;;;;;;-0.14;97.87;98284.33;4331827;80;21700;-84
2022/04/03 00:21:51;;;;;;;30.55;16.70;;;;;;;-0.15;98.01;98282.21;4402099;80;21045;-84
2022/04/03 00:27:53;;;;;;;39.67;21.73;;;;;;;-0.15;97.79;98280.86;4293355;82;21037;-84
2022/04/03 00:33:54;;;;;;;46.42;24.70;;;;;;;-0.16;97.75;98280.61;4397823;80;21057;-85
2022/04/03 00:39:55;;;;;;;47.38;26.05;;;;;;;-0.21;97.91;98282.70;4399078;80;21073;-84
2022/04/03 00:45:59;;;;;;;59.73;32.48;;;;;;;-0.16;97.64;98283.88;4400968;80;21452;-85
2022/04/03 00:52:02;;;;;;;64.53;36.15;;;;;;;-0.16;97.64;98283.88;4390158;80;21033;-85
2022/04/03 00:58:03;;;;;;;72.42;37.15;;;;;;;-0.28;97.73;98271.09;4403446;80;21440;-85
2022/04/03 01:04:06;;;;;;;64.50;36.05;;;;;;;-0.28;97.73;98271.09;4394633;80;21085;-86
2022/04/03 01:10:08;;;;;;;59.70;30.65;;;;;;;-0.22;97.73;98302.08;4388162;80;21533;-86
2022/04/03 01:16:10;;;;;;;61.10;33.30;;;;;;;-0.29;97.51;98299.11;4395976;80;21063;-87
2022/04/03 01:22:12;;;;;;;68.17;34.33;;;;;;;-0.29;97.58;98287.55;4375619;80;21007;-87
2022/04/03 01:28:14;;;;;;;60.23;30.88;;;;;;;-0.37;97.33;98297.23;4367622;80;21003;-86
2022/04/03 01:34:16;;;;;;;52.25;27.73;;;;;;;-0.40;97.49;98291.70;4369615;80;21578;-86
2022/04/03 01:40:18;;;;;;;62.33;30.60;;;;;;;-0.49;97.29;98294.97;4379468;80;21059;-85
2022/04/03 01:46:20;;;;;;;54.38;28.40;;;;;;;-0.57;97.24;98304.63;4376594;80;21491;-86
2022/04/03 01:52:21;;;;;;;46.77;22.98;;;;;;;-0.55;97.39;98305.66;4363024;80;21054;-85
2022/04/03 01:58:23;;;;;;;49.30;21.77;;;;;;;-0.62;97.12;98303.45;4367134;80;21007;-85
2022/04/03 02:04:26;;;;;;;50.10;22.22;;;;;;;-0.76;97.15;98312.78;4377684;80;21008;-85
2022/04/03 02:10:28;;;;;;;45.63;20.97;;;;;;;-0.91;97.00;98302.53;4365254;80;21030;-85
2022/04/03 02:16:29;;;;;;;37.85;18.02;;;;;;;-0.91;97.00;98302.53;4266023;81;21150;-85
2022/04/03 02:22:30;;;;;;;38.60;20.55;;;;;;;-0.78;96.85;98323.05;4244657;82;21071;-86
2022/04/03 02:28:32;;;;;;;38.53;20.60;;;;;;;-0.89;96.85;98326.62;4239658;82;21600;-85
2022/04/03 02:34:35;;;;;;;31.77;16.20;;;;;;;-0.86;97.08;98331.36;4254138;82;21004;-85
2022/04/03 02:40:36;;;;;;;27.60;14.45;;;;;;;-0.82;96.95;98329.63;4260111;82;21019;-85
2022/04/03 02:46:38;;;;;;;22.70;12.15;;;;;;;-0.79;96.99;98337.06;4237355;82;20989;-87
2022/04/03 02:52:39;;;;;;;24.43;12.95;;;;;;;-0.79;96.77;98338.95;4344869;81;21094;-86
2022/04/03 02:58:46;;;;;;;24.95;11.40;;;;;;;-0.81;96.59;98350.56;4353441;81;21035;-86
2022/04/03 03:04:47;;;;;;;24.10;11.73;;;;;;;-0.84;96.59;98358.71;4245034;82;21075;-86
2022/04/03 03:10:49;;;;;;;27.22;11.65;;;;;;;-0.86;96.45;98366.28;4237530;82;21048;-86
2022/04/03 03:16:50;;;;;;;20.95;11.35;;;;;;;-0.88;96.22;98376.58;4348566;80;21625;-86
2022/04/03 03:22:52;;;;;;;24.25;12.10;;;;;;;-0.99;96.38;98375.30;4366341;80;21555;-86
2022/04/03 03:28:53;;;;;;;22.05;10.53;;;;;;;-1.03;96.19;98383.73;4377365;80;21011;-86
2022/04/03 03:34:55;;;;;;;21.82;9.13;;;;;;;-1.05;96.21;98394.57;4377737;80;21344;-87
2022/04/03 03:40:56;;;;;;;25.83;10.97;;;;;;;-1.06;96.11;98398.34;4390823;80;21031;-86
2022/04/03 03:46:58;;;;;;;21.00;10.23;;;;;;;-1.12;95.77;98404.43;4299069;81;21084;-86
2022/04/03 03:52:59;;;;;;;23.05;10.82;;;;;;;-1.15;95.93;98408.28;4369513;80;21554;-87
2022/04/03 03:59:05;;;;;;;26.73;11.10;;;;;;;-1.14;95.88;98414.69;4374023;80;21058;-86
2022/04/03 04:05:08;;;;;;;22.62;12.20;;;;;;;-1.19;95.65;98420.77;4376973;80;21031;-86
2022/04/03 04:11:09;;;;;;;24.92;13.13;;;;;;;-1.27;95.49;98430.93;4294498;81;21016;-86
2022/04/03 04:17:11;;;;;;;24.87;12.10;;;;;;;-1.31;95.63;98437.47;4299295;81;21621;-87
2022/04/03 04:23:13;;;;;;;19.20;11.30;;;;;;;-1.33;95.38;98444.27;4304985;81;21056;-87
2022/04/03 04:29:21;;;;;;;22.80;11.22;;;;;;;-1.34;95.33;98448.03;4381925;80;21018;-86
2022/04/03 04:35:27;;;;;;;24.87;12.37;;;;;;;-1.41;95.17;98452.53;4380036;80;21070;-87
2022/04/03 04:41:29;;;;;;;25.02;13.10;;;;;;;-1.41;95.13;98463.27;4185740;82;190400;-87
2022/04/03 04:47:37;;;;;;;23.93;13.37;;;;;;;-1.38;95.16;98475.27;4240559;82;21076;-86
2022/04/03 04:53:39;;;;;;;25.60;15.07;;;;;;;-1.34;95.18;98483.73;4188793;84;20991;-87
2022/04/03 04:59:44;;;;;;;30.97;15.75;;;;;;;-1.28;95.15;98490.55;4157799;85;21592;-88
2022/04/03 05:05:53;;;;;;;;;;;;;;;-1.23;95.25;98497.13;4130403;85;21075;-88
2022/04/03 05:11:55;;;;;;;27.93;13.70;;;;;;;-1.19;95.10;98490.59;4264158;83;20187;-86
2022/04/03 05:17:58;;;;;;;29.57;16.05;;;;;;;-1.22;95.06;98504.65;4287195;82;21071;-87
2022/04/03 05:24:03;;;;;;;35.90;16.15;;;;;;;-1.17;95.09;98516.57;4264961;82;21079;-88
2022/04/03 05:30:11;;;;;;;33.13;16.17;;;;;;;-1.08;94.86;98535.66;4261466;83;22128;-87
2022/04/03 05:36:15;;;;;;;38.08;16.55;;;;;;;-1.08;94.86;98535.66;4280415;82;21139;-88
2022/04/03 05:42:22;;;;;;;29.98;15.72;;;;;;;-1.10;94.82;98542.45;4298706;82;21035;-87
2022/04/03 05:48:25;;;;;;;30.27;15.80;;;;;;;-1.06;94.39;98554.95;4298821;82;21141;-90
2022/04/03 05:54:27;;;;;;;27.98;13.45;;;;;;;-1.01;94.43;98564.77;4298460;82;21871;-87
2022/04/03 06:00:34;;;;;;;26.95;14.15;;;;;;;-1.01;94.38;98568.25;4289563;82;21035;-89
2022/04/03 06:06:42;;;;;;;25.75;14.15;;;;;;;-0.89;94.70;98575.73;4299682;82;21019;-88
2022/04/03 06:13:06;;;;;;;30.43;17.02;;;;;;;-0.86;94.49;98581.26;4285693;82;21031;-88
2022/04/03 06:19:12;;;;;;;29.18;15.68;;;;;;;-0.79;94.25;98592.37;4300019;82;21027;-87
2022/04/03 06:25:14;;;;;;;34.75;16.37;;;;;;;-0.69;94.14;98593.98;4295801;82;21594;-88
2022/04/03 06:31:21;;;;;;;28.37;14.20;;;;;;;-0.38;94.42;98596.05;4290290;82;21020;-89
2022/04/03 06:37:25;;;;;;;24.65;12.58;;;;;;;-0.06;94.33;98608.52;4297427;82;21079;-88
2022/04/03 06:43:30;;;;;;;27.45;14.75;;;;;;;0.15;93.48;98610.05;4288326;82;21114;-89
2022/04/03 06:49:33;;;;;;;32.03;13.40;;;;;;;0.30;93.81;98615.53;4296665;82;21071;-89
2022/04/03 06:55:37;;;;;;;27.15;11.97;;;;;;;0.34;93.25;98615.12;4288619;82;21098;-88
2022/04/03 07:01:49;;;;;;;23.47;12.05;;;;;;;0.21;93.10;98594.52;4292752;82;21082;-89
2022/04/03 07:07:49;;;;;;;23.67;12.75;;;;;;;0.51;92.79;98638.00;4277256;82;21035;-90
2022/04/03 07:13:53;;;;;;;22.95;12.98;;;;;;;0.61;92.23;98645.77;4278535;81;21086;-89
2022/04/03 07:19:55;;;;;;;26.60;12.85;;;;;;;0.66;92.21;98653.12;4295486;82;22282;-88
2022/04/03 07:25:56;;;;;;;27.70;13.35;;;;;;;0.56;91.41;98664.78;4286944;82;21141;-88
2022/04/03 07:32:02;;;;;;;22.27;11.28;;;;;;;0.48;91.99;98670.95;4289672;82;21022;-89
2022/04/03 07:38:05;;;;;;;15.65;9.05;;;;;;;0.77;91.74;98678.62;4317209;82;21059;-90
2022/04/03 07:44:09;;;;;;;21.27;12.05;;;;;;;1.07;91.36;98684.38;4282466;82;21074;-89
2022/04/03 07:50:13;;;;;;;24.63;13.22;;;;;;;1.19;91.36;98697.20;4290554;82;21042;-89
2022/04/03 07:56:14;;;;;;;27.93;11.30;;;;;;;1.09;90.63;98701.03;4297508;82;21908;-89
2022/04/03 08:02:17;;;;;;;19.15;9.80;;;;;;;1.06;90.53;98708.41;4310943;82;21023;-90
2022/04/03 08:08:20;;;;;;;19.40;10.98;;;;;;;1.26;90.27;98720.41;4286707;82;21050;-89
2022/04/03 08:14:26;;;;;;;17.35;8.60;;;;;;;1.45;89.30;98726.24;4291021;82;21055;-90
2022/04/03 08:20:32;;;;;;;18.37;10.72;;;;;;;1.68;88.09;98741.08;4147655;83;21048;-90
2022/04/03 08:26:33;;;;;;;22.45;10.98;;;;;;;1.94;89.15;98746.39;4158127;84;21017;-89
2022/04/03 08:32:35;;;;;;;20.00;10.25;;;;;;;2.47;89.75;98743.33;4119638;84;21050;-89
2022/04/03 08:38:36;;;;;;;18.45;9.85;;;;;;;2.30;88.06;98754.80;4154902;83;20995;-89
2022/04/03 08:44:40;;;;;;;23.40;11.48;;;;;;;2.13;87.24;98756.23;4145546;84;21025;-89
2022/04/03 08:50:49;;;;;;;25.37;12.80;;;;;;;2.10;86.78;98760.94;4152241;84;21569;-86
2022/04/03 08:56:50;;;;;;;21.93;11.85;;;;;;;2.50;87.75;98765.64;4116942;85;21081;-87
2022/04/03 09:02:54;;;;;;;24.40;12.25;;;;;;;2.80;87.00;98771.80;4190373;84;20986;-87
2022/04/03 09:08:56;;;;;;;19.42;10.45;;;;;;;2.99;86.92;98770.78;4150550;84;21033;-87
2022/04/03 09:14:59;;;;;;;20.80;11.15;;;;;;;2.91;85.91;98781.09;4166625;84;21549;-89
2022/04/03 09:21:03;;;;;;;20.70;10.85;;;;;;;2.65;85.51;98782.63;4191478;83;21100;-88
2022/04/03 09:27:16;;;;;;;23.62;12.43;;;;;;;2.15;85.41;98790.44;4238743;83;21041;-89
2022/04/03 09:33:20;;;;;;;19.52;10.20;;;;;;;2.07;86.38;98791.30;4234252;83;21044;-91
2022/04/03 09:39:27;;;;;;;20.77;10.58;;;;;;;2.33;85.62;98802.76;4231759;83;21100;-90
2022/04/03 09:45:30;;;;;;;17.57;9.63;;;;;;;2.44;86.10;98798.57;4188208;83;21033;-91
2022/04/03 09:51:36;;;;;;;12.25;5.12;;;;;;;2.67;85.03;98802.56;4217282;83;21057;-89
2022/04/03 09:57:43;;;;;;;10.43;5.00;;;;;;;2.61;83.68;98809.28;4218338;84;21040;-91
2022/04/03 10:03:47;;;;;;;8.80;4.55;;;;;;;2.61;82.88;98816.84;4176718;83;21122;-90
2022/04/03 10:09:52;;;;;;;13.18;5.90;;;;;;;2.56;81.12;98821.63;4123884;85;21159;-90
2022/04/03 10:15:56;;;;;;;17.07;6.72;;;;;;;2.83;79.87;98821.95;4237410;83;21052;-88
2022/04/03 10:22:01;;;;;;;13.03;6.45;;;;;;;2.79;78.17;98817.50;4259603;82;21088;-90
2022/04/03 10:28:25;;;;;;;12.58;5.42;;;;;;;3.19;79.84;98822.13;4262148;82;21041;-90
2022/04/03 10:56:07;;;;;;;8.48;4.75;;;;;;;3.51;74.18;98821.95;4160063;84;21087;-92
2022/04/03 11:37:26;;;;;;;14.73;6.78;;;;;;;3.43;68.57;98846.39;3720337;94;21176;-89
2022/04/03 11:50:11;;;;;;;9.98;4.70;;;;;;;2.82;68.58;98850.08;4115541;82;21490;-86
2022/04/03 11:56:36;;;;;;;8.10;5.30;;;;;;;2.60;69.60;98840.14;4278219;82;21011;-88
2022/04/03 12:02:44;;;;;;;8.95;5.00;;;;;;;2.86;69.07;98850.23;4185954;84;21043;-86
2022/04/03 12:08:50;;;;;;;16.10;6.00;;;;;;;2.81;66.67;98849.06;4220806;83;21001;-85
2022/04/03 12:14:51;;;;;;;8.68;4.58;;;;;;;2.43;69.07;98859.91;4284385;82;21008;-85
2022/04/03 12:21:09;;;;;;;11.80;5.92;;;;;;;2.16;69.65;98867.08;4286725;82;21080;-87
2022/04/03 12:27:43;;;;;;;9.28;4.95;;;;;;;1.90;70.40;98860.97;4293943;80;21126;-87
2022/04/03 12:34:41;;;;;;;11.78;4.78;;;;;;;1.73;69.71;98884.48;4282957;82;21203;-87
2022/04/03 12:47:58;;;;;;;12.33;5.92;;;;;;;1.74;70.85;98873.95;4253008;82;21106;-87
2022/04/03 12:54:18;;;;;;;;;;;;;;;1.76;70.46;98877.09;4293726;82;21496;-87
2022/04/03 13:00:51;;;;;;;11.80;6.33;;;;;;;1.85;70.00;98867.10;4290242;81;20160;-87
2022/04/03 13:06:53;;;;;;;12.00;5.30;;;;;;;2.08;69.83;98868.47;4294343;82;21550;-91
2022/04/03 13:13:00;;;;;;;10.95;5.95;;;;;;;2.51;70.29;98857.73;4288157;82;21015;-89
2022/04/03 13:19:10;;;;;;;10.60;5.45;;;;;;;2.21;68.01;98868.26;4295425;82;21064;-88
2022/04/03 13:25:16;;;;;;;7.83;4.80;;;;;;;1.69;68.64;98872.21;4257298;82;21043;-92
2022/04/03 13:31:16;;;;;;;15.32;7.65;;;;;;;1.44;69.82;98885.16;4260602;82;21094;-87
2022/04/03 13:37:19;;;;;;;9.18;5.97;;;;;;;1.33;70.42;98886.59;4260252;82;21531;-90
2022/04/03 13:43:23;;;;;;;13.75;6.33;;;;;;;1.51;71.10;98884.11;4259978;82;21055;-91
2022/04/03 13:49:28;;;;;;;16.15;7.83;;;;;;;1.73;70.17;98875.05;4259012;82;21122;-92
2022/04/03 14:02:30;;;;;;;;;;;;;;;;;;;;;
2022/04/03 14:15:18;;;;;;;;;;;;;;;;;;;;;
2022/04/03 14:21:38;;;;;;;11.12;5.95;;;;;;;2.35;67.85;98882.92;4245093;82;21118;-91
2022/04/03 14:28:21;;;;;;;;;;;;;;;;;;;;;
2022/04/03 14:34:49;;;;;;;12.47;7.10;;;;;;;1.96;67.32;98898.82;4117348;85;22559;-94
2022/04/03 14:41:13;;;;;;;13.55;6.90;;;;;;;1.84;68.56;98904.09;4051345;85;21539;-90
2022/04/03 14:47:30;;;;;;;12.50;6.40;;;;;;;1.73;68.50;98900.12;4150703;84;21955;-91
2022/04/03 14:53:57;;;;;;;10.48;5.75;;;;;;;1.75;68.55;98906.02;4146454;85;21104;-90
2022/04/03 15:00:19;;;;;;;14.58;6.80;;;;;;;1.64;68.18;98910.14;4288586;82;21055;-91
2022/04/03 15:07:13;;;;;;;;;;;;;;;;;;;;;
2022/04/03 15:13:32;;;;;;;;;;;;;;;;;;;;;
2022/04/03 15:40:26;;;;;;;10.10;5.58;;;;;;;1.12;68.85;98936.29;3732704;93;21233;-93
2022/04/03 15:46:54;;;;;;;12.25;5.72;;;;;;;1.15;68.38;98945.64;3461415;98;21084;-92
2022/04/03 16:26:27;;;;;;;17.52;7.30;;;;;;;0.82;67.72;98968.15;3843145;85;21146;-92
2022/04/03 16:32:31;;;;;;;17.48;7.95;;;;;;;0.69;67.91;98976.34;4046282;86;21074;-90
2022/04/03 16:39:02;;;;;;;12.78;6.58;;;;;;;0.60;68.47;98979.53;4206083;82;21095;-91
2022/04/03 16:45:21;;;;;;;18.70;8.98;;;;;;;0.57;69.17;98980.95;4212443;82;21615;-91
2022/04/03 16:51:34;;;;;;;15.83;8.63;;;;;;;0.57;69.17;98980.95;4205320;82;21039;-91
2022/04/03 16:57:53;;;;;;;14.93;7.72;;;;;;;0.57;69.11;98985.54;4203472;82;21035;-91
2022/04/03 17:03:53;;;;;;;18.48;8.80;;;;;;;0.55;69.03;98995.85;4230839;82;21109;-89
2022/04/03 17:09:58;;;;;;;22.17;8.63;;;;;;;0.53;69.29;98997.51;4186475;82;21156;-89
2022/04/03 17:16:03;;;;;;;18.43;9.20;;;;;;;0.50;69.35;99005.41;4214371;82;21018;-90
2022/04/03 17:22:18;;;;;;;16.57;9.13;;;;;;;0.34;69.02;99006.34;4162998;82;21131;-89
2022/04/03 17:28:16;;;;;;;19.62;8.98;;;;;;;0.36;69.61;99008.73;4200994;82;22069;-90
2022/04/03 17:34:19;;;;;;;22.37;10.10;;;;;;;0.27;69.97;99013.27;4207341;82;21062;-91
2022/04/03 17:40:23;;;;;;;22.50;9.60;;;;;;;0.33;70.29;99032.23;4213213;83;21049;-89
2022/04/03 17:46:25;;;;;;;20.40;10.35;;;;;;;0.31;70.33;99039.81;4091794;81;9999522;-89
2022/04/03 17:52:26;;;;;;;26.60;12.23;;;;;;;0.28;70.66;99046.62;4213247;83;21007;-88
2022/04/03 17:58:28;;;;;;;22.20;10.72;;;;;;;0.27;70.67;99055.00;4187214;83;21038;-89
2022/04/03 18:04:30;;;;;;;24.15;11.10;;;;;;;0.27;70.40;99067.12;4216566;83;21468;-88
2022/04/03 18:10:33;;;;;;;18.92;10.35;;;;;;;0.24;70.51;99073.89;4213076;83;21571;-87
2022/04/03 18:16:34;;;;;;;23.55;10.55;;;;;;;0.22;70.93;99076.09;4214766;83;21387;-87
2022/04/03 18:22:38;;;;;;;23.00;12.03;;;;;;;0.25;71.39;99077.39;4208909;83;21069;-88
2022/04/03 18:28:40;;;;;;;25.52;13.35;;;;;;;0.20;71.69;99088.27;4174940;83;21047;-87
2022/04/03 18:34:41;;;;;;;29.23;13.08;;;;;;;0.20;72.18;99093.66;4170896;83;21171;-89
2022/04/03 18:40:43;;;;;;;21.95;11.93;;;;;;;0.13;71.22;99101.34;4179307;83;20996;-87
2022/04/03 18:46:44;;;;;;;27.50;12.73;;;;;;;0.08;71.61;99108.98;4172769;83;21026;-87
2022/04/03 18:52:48;;;;;;;24.23;13.30;;;;;;;0.12;71.27;99116.72;4172038;83;21223;-88
2022/04/03 18:58:50;;;;;;;21.27;10.38;;;;;;;0.10;71.84;99110.83;4178606;83;21031;-88
2022/04/03 19:04:51;;;;;;;29.67;14.80;;;;;;;0.02;72.10;99109.43;4168638;83;21528;-88
2022/04/03 19:10:53;;;;;;;31.15;13.93;;;;;;;0.02;72.10;99109.43;4161506;83;21038;-89
2022/04/03 19:16:56;;;;;;;29.25;13.38;;;;;;;0.05;72.02;99117.67;4180315;82;21042;-89
2022/04/03 19:22:57;;;;;;;28.05;14.93;;;;;;;0.07;72.24;99114.67;4178302;83;21130;-88
2022/04/03 19:35:15;;;;;;;36.03;15.88;;;;;;;0.12;72.31;99129.38;4476874;77;23761;-87
2022/04/03 19:41:17;;;;;;;32.98;14.10;;;;;;;0.04;72.49;99121.47;4411722;78;21060;-88
2022/04/03 19:47:18;;;;;;;34.20;15.50;;;;;;;0.04;72.61;99121.47;4447200;78;21121;-87
2022/04/03 19:53:21;;;;;;;37.13;14.78;;;;;;;0.03;72.70;99131.20;4445006;78;21083;-87
2022/04/03 19:59:22;;;;;;;33.83;16.10;;;;;;;0.01;73.12;99127.47;4447304;78;21105;-88
2022/04/03 20:05:24;;;;;;;33.58;15.60;;;;;;;-0.03;73.21;99126.45;4447245;78;21043;-89
2022/04/03 20:11:25;;;;;;;27.52;14.28;;;;;;;-0.24;73.68;99118.59;4442220;78;21536;-87
2022/04/03 20:17:33;;;;;;;32.78;14.55;;;;;;;-0.17;73.61;99130.53;4449350;78;21061;-88
2022/04/03 20:23:31;;;;;;;39.90;18.70;;;;;;;-0.15;74.04;99135.07;4451400;78;21111;-89
2022/04/03 20:29:32;;;;;;;42.08;20.15;;;;;;;-0.20;74.03;99139.74;4449353;79;21641;-89
2022/04/03 20:35:34;;;;;;;50.45;21.90;;;;;;;-0.16;74.18;99149.60;4442441;78;22210;-88
2022/04/03 20:41:36;;;;;;;54.25;22.37;;;;;;;-0.16;74.22;99144.22;4443215;79;21998;-88
2022/04/03 20:47:37;;;;;;;42.60;22.30;;;;;;;-0.17;74.47;99152.59;4442108;80;21482;-88
2022/04/03 20:53:42;;;;;;;49.15;22.85;;;;;;;-0.18;74.43;99147.78;4442469;78;21038;-88
2022/04/03 20:59:44;;;;;;;49.48;23.00;;;;;;;-0.37;74.76;99135.53;4445051;78;21394;-88
2022/04/03 21:05:45;;;;;;;45.58;21.05;;;;;;;-0.35;75.14;99151.64;4440757;78;21037;-88
2022/04/03 21:11:47;;;;;;;44.13;20.32;;;;;;;-0.41;75.13;99148.77;4441320;79;21633;-88
2022/04/03 21:17:49;;;;;;;46.70;20.43;;;;;;;-0.41;75.63;99146.66;4442909;79;21005;-89
2022/04/03 21:23:51;;;;;;;45.58;18.20;;;;;;;-0.29;75.77;99157.16;4441121;79;21039;-88
2022/04/03 21:29:52;;;;;;;34.48;16.95;;;;;;;-0.35;75.84;99158.90;4446219;79;21512;-89
2022/04/03 21:35:54;;;;;;;40.90;18.87;;;;;;;-0.35;75.84;99158.90;4448147;78;21474;-88
2022/04/03 21:41:56;;;;;;;40.98;18.50;;;;;;;-0.36;75.75;99155.41;4440457;79;20995;-88
2022/04/03 21:47:59;;;;;;;35.38;17.75;;;;;;;-0.33;75.97;99156.72;4449186;79;21522;-88
2022/04/03 21:54:06;;;;;;;33.65;17.10;;;;;;;-0.33;75.97;99156.72;4440869;78;21677;-89
2022/04/03 22:00:10;;;;;;;32.05;16.27;;;;;;;-0.37;76.19;99163.77;4439899;79;21029;-89
2022/04/03 22:06:14;;;;;;;32.03;16.05;;;;;;;-0.35;76.39;99155.67;4436262;79;21505;-88
2022/04/03 22:12:16;;;;;;;27.95;14.47;;;;;;;-0.43;76.38;99137.54;4447081;79;21042;-88
2022/04/03 22:18:18;;;;;;;30.00;14.33;;;;;;;-0.29;76.17;99155.81;4437698;79;21006;-88
2022/04/03 22:24:22;;;;;;;38.28;16.10;;;;;;;-0.29;76.17;99155.81;4448910;79;20961;-90
2022/04/03 22:30:24;;;;;;;32.53;15.08;;;;;;;-0.34;76.34;99155.91;4440827;78;21630;-90
2022/04/03 22:36:25;;;;;;;27.65;14.53;;;;;;;-0.45;76.59;99135.69;4436968;79;20999;-89
2022/04/03 22:42:28;;;;;;;29.87;15.58;;;;;;;-0.45;76.59;99135.69;4445356;79;21011;-88
2022/04/03 22:48:29;;;;;;;27.22;13.83;;;;;;;-0.35;76.38;99148.95;4440945;79;21005;-87
2022/04/03 22:54:31;;;;;;;26.00;13.98;;;;;;;-0.30;76.15;99150.16;4442084;79;21357;-89
2022/04/03 23:00:33;;;;;;;28.23;14.30;;;;;;;-0.31;75.89;99163.37;4440884;79;21013;-88
2022/04/03 23:06:35;;;;;;;26.25;13.40;;;;;;;-0.33;76.00;99156.72;4441897;78;21033;-88
2022/04/03 23:12:37;;;;;;;32.58;15.13;;;;;;;-0.40;76.01;99144.20;4447012;79;21041;-88
2022/04/03 23:18:39;;;;;;;37.10;14.55;;;;;;;-0.49;75.89;99124.48;4435877;79;21044;-87
2022/04/03 23:24:40;;;;;;;29.42;13.50;;;;;;;-0.49;75.89;99124.48;4438391;79;21040;-87
2022/04/03 23:30:42;;;;;;;25.27;12.10;;;;;;;-0.43;76.37;99142.92;4437436;79;21084;-88
2022/04/03 23:36:44;;;;;;;28.32;12.80;;;;;;;-0.45;76.56;99140.27;4436057;80;21014;-88
2022/04/03 23:42:46;;;;;;;28.02;13.28;;;;;;;-0.46;76.66;99135.98;4441613;78;21073;-88
2022/04/03 23:48:47;;;;;;;28.20;12.68;;;;;;;-0.56;76.89;99120.85;4441461;78;21050;-88
2022/04/03 23:54:48;;;;;;;28.85;13.05;;;;;;;-0.56;76.89;99120.85;4432451;80;21057;-87
